Time;durP1;ratioP1;P1;durP2;ratioP2;P2;SDS_P1;SDS_P2;PMS_P1;PMS_P2;Temp;Humidity;BMP_temperature;BMP_pressure;BME280_temperature;BME280_humidity;BME280_pressure;Samples;Min_cycle;Max_cycle;Signal;HPM_P1;HPM_P2
2023/12/02 00:02:08;;;;;;;12.90;7.60;;;;;;;9.97;100.00;99408.88;107823;1289;22001;-61
2023/12/02 00:04:34;;;;;;;11.50;7.40;;;;;;;9.98;100.00;99413.77;107843;1281;21996;-59
2023/12/02 00:06:59;;;;;;;11.70;7.20;;;;;;;9.99;100.00;99410.41;107825;1290;21997;-62
2023/12/02 00:09:25;;;;;;;11.60;7.80;;;;;;;9.99;100.00;99400.97;107822;1290;22044;-59
2023/12/02 00:11:51;;;;;;;17.30;8.30;;;;;;;9.97;100.00;99396.80;107820;1290;21999;-62
2023/12/02 00:14:17;;;;;;;10.50;7.60;;;;;;;9.93;100.00;99396.70;107826;1290;21994;-59
2023/12/02 00:16:42;;;;;;;10.20;6.70;;;;;;;9.90;100.00;99399.80;107837;1287;21994;-62
2023/12/02 00:19:08;;;;;;;11.90;7.50;;;;;;;9.86;100.00;99402.50;107819;1279;22008;-59
2023/12/02 00:21:33;;;;;;;12.30;7.70;;;;;;;9.82;100.00;99412.77;107877;1290;21986;-61
2023/12/02 00:23:59;;;;;;;10.70;6.90;;;;;;;9.75;100.00;99420.46;107819;1290;22000;-59
2023/12/02 00:26:24;;;;;;;12.00;7.20;;;;;;;9.70;100.00;99424.45;107834;1284;21990;-59
2023/12/02 00:28:50;;;;;;;13.00;9.10;;;;;;;9.67;100.00;99429.26;107814;1290;22048;-61
2023/12/02 00:31:16;;;;;;;12.10;7.80;;;;;;;9.65;100.00;99426.66;107810;1290;22455;-62
2023/12/02 00:33:42;;;;;;;11.50;7.80;;;;;;;9.65;100.00;99424.04;107811;1287;21989;-61
2023/12/02 00:36:08;;;;;;;10.90;7.40;;;;;;;9.64;100.00;99426.67;107810;1277;21992;-61
2023/12/02 00:38:34;;;;;;;12.10;7.60;;;;;;;9.64;100.00;99427.04;107896;1290;22034;-61
2023/12/02 00:40:59;;;;;;;12.90;7.40;;;;;;;9.64;100.00;99424.94;107853;1290;22004;-59
2023/12/02 00:43:25;;;;;;;9.40;6.10;;;;;;;9.64;100.00;99421.42;107817;1290;21990;-59
2023/12/02 00:45:50;;;;;;;11.90;6.80;;;;;;;9.65;100.00;99420.16;107801;1279;21988;-62
2023/12/02 00:48:16;;;;;;;11.90;8.00;;;;;;;9.68;100.00;99428.35;107821;1290;21990;-59
2023/12/02 00:50:42;;;;;;;13.90;7.80;;;;;;;9.69;100.00;99435.17;107848;1290;21992;-61
2023/12/02 00:53:07;;;;;;;14.40;8.50;;;;;;;9.69;100.00;99434.82;107805;1290;21961;-59
2023/12/02 00:55:33;;;;;;;12.70;8.70;;;;;;;9.64;100.00;99436.13;107796;1290;21985;-60
2023/12/02 00:57:58;;;;;;;11.20;7.30;;;;;;;9.60;100.00;99430.63;107800;1290;22189;-62
2023/12/02 01:00:24;;;;;;;11.00;7.00;;;;;;;9.59;100.00;99426.27;107815;1287;21996;-61
2023/12/02 01:02:50;;;;;;;14.60;7.60;;;;;;;9.58;100.00;99415.60;107858;1290;21953;-59
2023/12/02 01:05:15;;;;;;;12.60;7.10;;;;;;;9.58;100.00;99407.21;107826;1290;22003;-59
2023/12/02 01:07:41;;;;;;;13.00;7.50;;;;;;;9.60;100.00;99405.94;107831;1290;22007;-59
2023/12/02 01:10:11;;;;;;;14.50;8.10;;;;;;;9.61;100.00;99419.92;107834;1290;22002;-59
2023/12/02 01:12:39;;;;;;;12.80;7.60;;;;;;;9.61;100.00;99415.55;107904;1281;23511;-59
2023/12/02 01:15:05;;;;;;;11.20;7.00;;;;;;;9.60;100.00;99411.54;107911;1290;22760;-59
2023/12/02 01:17:31;;;;;;;11.30;6.80;;;;;;;9.59;100.00;99412.96;107833;1290;22027;-61
2023/12/02 01:19:56;;;;;;;12.70;7.50;;;;;;;9.57;100.00;99426.50;107930;1284;22017;-62
2023/12/02 01:22:22;;;;;;;11.60;7.10;;;;;;;9.57;100.00;99442.61;107809;1290;22003;-61
2023/12/02 01:24:47;;;;;;;11.80;7.80;;;;;;;9.57;100.00;99449.45;106328;1289;1002963;-61
2023/12/02 01:27:13;;;;;;;18.80;7.70;;;;;;;9.54;100.00;99438.64;107877;1290;21993;-60
2023/12/02 01:29:39;;;;;;;13.30;8.20;;;;;;;9.51;100.00;99432.57;107799;1290;21999;-61
2023/12/02 01:32:05;;;;;;;13.30;8.20;;;;;;;9.52;100.00;99447.97;107834;1290;22047;-59
2023/12/02 01:34:31;;;;;;;12.80;8.10;;;;;;;9.50;100.00;99460.80;107845;1290;21995;-59
2023/12/02 01:36:56;;;;;;;10.20;7.50;;;;;;;9.47;100.00;99462.79;107847;1290;21977;-59
2023/12/02 01:39:22;;;;;;;10.90;7.20;;;;;;;9.45;100.00;99453.05;107939;1290;21959;-61
2023/12/02 01:41:47;;;;;;;14.60;7.70;;;;;;;9.45;100.00;99448.50;107857;1290;21956;-59
2023/12/02 01:44:13;;;;;;;15.50;8.20;;;;;;;9.42;100.00;99462.73;107803;1290;21986;-60
2023/12/02 01:46:38;;;;;;;13.80;8.10;;;;;;;9.40;100.00;99472.77;107915;1287;21968;-60
2023/12/02 01:49:05;;;;;;;16.00;8.90;;;;;;;9.40;100.00;99470.84;107800;1286;22002;-60
2023/12/02 01:51:30;;;;;;;17.80;7.20;;;;;;;9.40;100.00;99459.63;107936;1280;21995;-62
2023/12/02 01:53:56;;;;;;;16.30;8.50;;;;;;;9.41;100.00;99454.34;107902;1287;21992;-62
2023/12/02 01:56:21;;;;;;;16.40;7.30;;;;;;;9.44;100.00;99440.64;107860;1290;21992;-62
2023/12/02 01:58:47;;;;;;;15.80;8.00;;;;;;;9.46;100.00;99425.02;107900;1290;21997;-59
2023/12/02 02:01:13;;;;;;;11.60;8.00;;;;;;;9.47;100.00;99425.86;107879;1288;22031;-62
2023/12/02 02:03:38;;;;;;;12.70;8.10;;;;;;;9.44;100.00;99441.85;107838;1284;21978;-62
2023/12/02 02:06:04;;;;;;;15.20;8.70;;;;;;;9.40;100.00;99440.02;107827;1280;21987;-61
2023/12/02 02:08:30;;;;;;;16.90;8.00;;;;;;;9.37;100.00;99447.79;107776;1286;21990;-59
2023/12/02 02:10:58;;;;;;;13.10;8.50;;;;;;;9.35;100.00;99457.63;107819;1290;21984;-59
2023/12/02 02:13:25;;;;;;;15.40;8.30;;;;;;;9.30;100.00;99460.70;107852;1290;22014;-61
2023/12/02 02:15:50;;;;;;;14.80;8.30;;;;;;;9.27;100.00;99464.11;107803;1289;21991;-62
2023/12/02 02:18:16;;;;;;;13.70;8.10;;;;;;;9.24;100.00;99463.65;107815;1289;21987;-59
2023/12/02 02:20:41;;;;;;;14.30;7.70;;;;;;;9.23;100.00;99467.52;107834;1290;21998;-59
2023/12/02 02:23:07;;;;;;;13.10;7.80;;;;;;;9.22;100.00;99471.39;107883;1281;21994;-59
2023/12/02 02:25:32;;;;;;;12.70;8.60;;;;;;;9.20;100.00;99476.51;107837;1290;22003;-60
2023/12/02 02:28:01;;;;;;;15.40;9.80;;;;;;;9.20;100.00;99485.98;107844;1277;21993;-59
2023/12/02 02:30:27;;;;;;;13.60;8.60;;;;;;;9.19;100.00;99502.78;108012;1289;22004;-62
2023/12/02 02:32:52;;;;;;;13.20;8.80;;;;;;;9.16;100.00;99501.63;108017;1283;22454;-62
2023/12/02 02:35:18;;;;;;;14.00;9.10;;;;;;;9.14;100.00;99488.21;107976;1286;22007;-62
2023/12/02 02:37:43;;;;;;;14.10;8.40;;;;;;;9.12;100.00;99476.85;107972;1289;21993;-60
2023/12/02 02:40:10;;;;;;;11.70;8.50;;;;;;;9.11;100.00;99477.92;107979;1289;22046;-61
2023/12/02 02:42:35;;;;;;;14.30;9.60;;;;;;;9.09;100.00;99482.85;108025;1289;22000;-59
2023/12/02 02:45:01;;;;;;;15.50;8.50;;;;;;;9.07;100.00;99466.45;107929;1277;145314;-61
2023/12/02 02:47:27;;;;;;;20.20;9.40;;;;;;;9.05;100.00;99449.68;107960;1289;21989;-62
2023/12/02 02:49:52;;;;;;;16.50;8.30;;;;;;;9.04;100.00;99444.30;107993;1289;21987;-61
2023/12/02 02:52:18;;;;;;;16.20;8.20;;;;;;;9.03;100.00;99449.55;107976;1287;22031;-62
2023/12/02 02:54:46;;;;;;;13.40;8.80;;;;;;;9.03;100.00;99463.40;107980;1289;21962;-61
2023/12/02 02:57:12;;;;;;;13.50;7.90;;;;;;;9.01;100.00;99467.62;108034;1289;21997;-61
2023/12/02 02:59:37;;;;;;;15.00;8.20;;;;;;;9.01;100.00;99463.78;108079;1289;21961;-60
2023/12/02 03:02:03;;;;;;;19.00;8.80;;;;;;;9.04;100.00;99459.34;107960;1289;22000;-60
2023/12/02 03:04:29;;;;;;;21.80;9.70;;;;;;;9.07;100.00;99463.48;107983;1280;21990;-60
2023/12/02 03:06:57;;;;;;;21.00;9.60;;;;;;;9.10;100.00;99458.86;107975;1289;22000;-61
2023/12/02 03:09:22;;;;;;;20.00;8.30;;;;;;;9.11;100.00;99446.06;108021;1287;24345;-60
2023/12/02 03:11:50;;;;;;;13.90;8.30;;;;;;;9.13;100.00;99447.42;107985;1284;21990;-60
2023/12/02 03:14:16;;;;;;;14.00;8.20;;;;;;;9.16;100.00;99452.96;108027;1280;22048;-61
2023/12/02 03:16:41;;;;;;;17.80;8.40;;;;;;;9.18;100.00;99450.12;107990;1289;22015;-60
2023/12/02 03:19:07;;;;;;;14.90;9.00;;;;;;;9.19;100.00;99454.13;107999;1289;21994;-62
2023/12/02 03:21:33;;;;;;;14.80;9.30;;;;;;;9.19;100.00;99464.61;107979;1289;21996;-60
2023/12/02 03:23:58;;;;;;;21.40;10.10;;;;;;;9.19;100.00;99475.31;107984;1289;21981;-60
2023/12/02 03:26:24;;;;;;;15.10;9.70;;;;;;;9.19;100.00;99466.91;108003;1283;21997;-62
2023/12/02 03:28:50;;;;;;;19.90;9.60;;;;;;;9.23;100.00;99457.73;108005;1283;22085;-60
2023/12/02 03:31:16;;;;;;;15.50;10.30;;;;;;;9.29;100.00;99457.94;107967;1289;21989;-61
2023/12/02 03:33:41;;;;;;;17.20;9.60;;;;;;;9.36;100.00;99448.85;108028;1289;21994;-61
2023/12/02 03:36:08;;;;;;;16.50;11.30;;;;;;;9.43;100.00;99448.53;107990;1278;22218;-63
2023/12/02 03:38:33;;;;;;;18.30;10.70;;;;;;;9.50;100.00;99454.32;108028;1289;22454;-62
2023/12/02 03:41:02;;;;;;;17.10;10.70;;;;;;;9.56;100.00;99463.30;108071;1287;22117;-61
2023/12/02 03:43:28;;;;;;;16.30;11.10;;;;;;;9.61;100.00;99475.98;108036;1289;22006;-61
2023/12/02 03:45:55;;;;;;;17.20;11.50;;;;;;;9.64;100.00;99482.55;108110;1286;21988;-63
2023/12/02 03:48:23;;;;;;;20.00;11.00;;;;;;;9.68;100.00;99477.77;108040;1289;21992;-61
2023/12/02 03:50:49;;;;;;;16.70;10.10;;;;;;;9.72;100.00;99474.33;108035;1289;21992;-62
2023/12/02 03:53:14;;;;;;;17.10;10.30;;;;;;;9.76;100.00;99472.47;107246;1289;1002318;-63
2023/12/02 03:55:40;;;;;;;20.30;10.90;;;;;;;9.81;100.00;99459.56;107986;1289;21988;-61
2023/12/02 03:58:05;;;;;;;19.80;8.90;;;;;;;9.88;100.00;99451.36;107965;1287;21989;-60
2023/12/02 04:00:31;;;;;;;20.90;10.20;;;;;;;9.96;100.00;99447.29;107994;1289;22000;-61
2023/12/02 04:02:59;;;;;;;16.50;10.80;;;;;;;10.02;100.00;99442.40;107943;1289;21995;-63
2023/12/02 04:05:24;;;;;;;17.00;10.90;;;;;;;10.07;100.00;99445.10;107925;1289;21979;-63
2023/12/02 04:07:50;;;;;;;16.80;10.30;;;;;;;10.15;100.00;99443.84;107993;1286;21998;-63
2023/12/02 04:10:16;;;;;;;16.20;10.00;;;;;;;10.21;100.00;99437.71;107927;1289;21992;-61
2023/12/02 04:12:41;;;;;;;24.40;9.80;;;;;;;10.27;100.00;99432.85;107940;1287;21997;-61
2023/12/02 04:15:07;;;;;;;15.90;9.20;;;;;;;10.31;100.00;99430.80;107956;1289;21995;-63
2023/12/02 04:17:36;;;;;;;19.70;10.90;;;;;;;10.34;100.00;99438.79;107974;1289;21999;-63
2023/12/02 04:20:08;;;;;;;13.10;9.10;;;;;;;10.38;100.00;99448.16;107965;1286;22014;-61
2023/12/02 04:22:35;;;;;;;24.40;11.30;;;;;;;10.43;100.00;99451.05;107957;1289;22455;-60
2023/12/02 04:25:01;;;;;;;20.90;11.20;;;;;;;10.43;100.00;99448.59;108024;1289;21989;-63
2023/12/02 04:27:26;;;;;;;22.50;10.60;;;;;;;10.46;100.00;99447.47;107966;1289;21995;-64
2023/12/02 04:29:52;;;;;;;23.30;10.90;;;;;;;10.50;100.00;99438.95;107880;1276;22295;-61
2023/12/02 04:32:18;;;;;;;25.70;10.60;;;;;;;10.52;100.00;99425.38;107920;1280;21989;-60
2023/12/02 04:34:43;;;;;;;24.40;10.70;;;;;;;10.56;100.00;99442.81;107922;1289;21990;-64
2023/12/02 04:37:09;;;;;;;22.30;10.50;;;;;;;10.60;100.00;99450.59;107911;1289;21997;-60
2023/12/02 04:39:34;;;;;;;25.80;11.60;;;;;;;10.64;100.00;99452.23;107943;1289;22002;-61
2023/12/02 04:42:00;;;;;;;34.30;11.80;;;;;;;10.66;100.00;99451.48;107907;1289;21998;-62
2023/12/02 04:44:26;;;;;;;36.70;11.90;;;;;;;10.67;100.00;99445.83;107937;1289;23733;-61
2023/12/02 04:46:51;;;;;;;36.90;13.30;;;;;;;10.68;100.00;99454.92;107938;1283;22259;-63
2023/12/02 04:49:17;;;;;;;31.30;11.60;;;;;;;10.69;100.00;99463.66;107947;1289;22011;-61
2023/12/02 04:51:42;;;;;;;33.30;11.00;;;;;;;10.70;100.00;99471.89;107974;1289;21992;-65
2023/12/02 04:54:09;;;;;;;32.40;12.40;;;;;;;10.70;100.00;99468.20;107989;1280;22001;-60
2023/12/02 04:56:35;;;;;;;24.30;10.60;;;;;;;10.72;100.00;99466.75;107981;1276;21990;-60
2023/12/02 04:59:01;;;;;;;24.80;11.20;;;;;;;10.76;100.00;99469.29;108016;1289;21995;-61
2023/12/02 05:01:26;;;;;;;27.70;11.70;;;;;;;10.78;100.00;99466.41;107989;1289;21990;-61
2023/12/02 05:03:52;;;;;;;26.40;12.00;;;;;;;10.81;100.00;99469.32;107973;1289;21989;-63
2023/12/02 05:06:18;;;;;;;22.10;11.00;;;;;;;10.82;100.00;99482.45;107977;1289;21994;-63
2023/12/02 05:08:47;;;;;;;20.20;11.30;;;;;;;10.84;100.00;99485.38;107967;1280;21995;-64
2023/12/02 05:11:20;;;;;;;21.90;10.50;;;;;;;10.83;100.00;99482.58;107963;1289;22000;-62
2023/12/02 05:13:46;;;;;;;17.90;10.80;;;;;;;10.82;100.00;99483.85;108027;1289;23725;-64
2023/12/02 05:16:13;;;;;;;18.70;10.70;;;;;;;10.82;100.00;99487.17;107931;1289;22023;-62
2023/12/02 05:18:41;;;;;;;21.40;12.60;;;;;;;10.81;100.00;99480.88;108010;1289;22028;-63
2023/12/02 05:21:09;;;;;;;19.10;11.60;;;;;;;10.80;100.00;99473.91;108029;1288;22119;-61
2023/12/02 05:23:35;;;;;;;17.20;10.50;;;;;;;10.79;100.00;99471.99;108008;1277;22000;-62
2023/12/02 05:26:01;;;;;;;19.20;11.30;;;;;;;10.80;100.00;99469.88;108016;1283;22000;-61
2023/12/02 05:28:28;;;;;;;19.70;11.40;;;;;;;10.80;100.00;99473.91;107993;1280;22037;-61
2023/12/02 05:30:53;;;;;;;16.90;10.80;;;;;;;10.79;100.00;99479.02;108048;1280;21991;-62
2023/12/02 05:33:22;;;;;;;18.10;10.20;;;;;;;10.80;100.00;99472.85;108009;1286;22004;-62
2023/12/02 05:35:48;;;;;;;22.20;11.00;;;;;;;10.81;100.00;99474.75;107991;1277;21966;-64
2023/12/02 05:38:14;;;;;;;23.40;11.90;;;;;;;10.83;100.00;99481.54;108048;1289;22010;-62
2023/12/02 05:40:40;;;;;;;18.20;12.30;;;;;;;10.83;100.00;99477.48;107994;1289;21988;-63
2023/12/02 05:43:05;;;;;;;22.10;12.80;;;;;;;10.84;100.00;99474.48;107995;1286;21989;-64
2023/12/02 05:45:31;;;;;;;15.90;10.70;;;;;;;10.85;100.00;99471.13;107993;1287;21992;-62
2023/12/02 05:47:56;;;;;;;19.00;10.70;;;;;;;10.86;100.00;99471.45;108021;1287;21997;-63
2023/12/02 05:50:22;;;;;;;17.20;10.00;;;;;;;10.87;100.00;99476.34;107896;1286;22014;-63
2023/12/02 05:52:47;;;;;;;17.50;10.00;;;;;;;10.91;100.00;99480.11;107971;1287;22042;-63
2023/12/02 05:55:13;;;;;;;19.00;12.20;;;;;;;10.91;100.00;99483.06;107971;1289;22034;-63
2023/12/02 05:57:39;;;;;;;17.80;12.10;;;;;;;10.93;100.00;99489.17;107964;1289;21990;-62
2023/12/02 06:00:07;;;;;;;19.50;12.30;;;;;;;10.96;100.00;99492.95;107987;1286;21992;-64
2023/12/02 06:02:33;;;;;;;18.80;12.00;;;;;;;10.98;100.00;99494.11;108046;1286;24331;-62
2023/12/02 06:04:58;;;;;;;19.10;10.80;;;;;;;11.01;100.00;99493.88;108000;1289;21990;-63
2023/12/02 06:07:24;;;;;;;15.00;10.50;;;;;;;11.03;100.00;99499.79;107995;1281;22002;-64
2023/12/02 06:09:50;;;;;;;14.40;9.60;;;;;;;11.06;100.00;99499.35;108039;1289;21991;-62
2023/12/02 06:12:15;;;;;;;18.10;10.30;;;;;;;11.09;100.00;99495.20;108002;1280;22030;-62
2023/12/02 06:14:41;;;;;;;19.10;11.10;;;;;;;11.11;100.00;99494.63;107994;1289;22007;-63
2023/12/02 06:17:07;;;;;;;17.00;10.90;;;;;;;11.14;100.00;99493.16;108041;1289;21987;-62
2023/12/02 06:19:32;;;;;;;14.00;9.70;;;;;;;11.15;100.00;99484.32;108041;1289;21986;-63
2023/12/02 06:21:58;;;;;;;14.90;9.80;;;;;;;11.17;100.00;99484.09;107986;1289;24106;-64
2023/12/02 06:24:24;;;;;;;15.80;9.90;;;;;;;11.21;100.00;99482.41;107996;1286;21999;-63
2023/12/02 06:26:49;;;;;;;14.50;9.90;;;;;;;11.21;100.00;99485.92;107980;1283;22026;-63
2023/12/02 06:29:15;;;;;;;14.90;9.30;;;;;;;11.23;100.00;99481.48;108035;1289;22479;-62
2023/12/02 06:31:41;;;;;;;13.40;8.60;;;;;;;11.24;100.00;99473.20;107959;1289;21993;-62
2023/12/02 06:34:07;;;;;;;14.60;9.00;;;;;;;11.25;100.00;99468.93;108013;1287;21989;-62
2023/12/02 06:36:33;;;;;;;13.10;8.90;;;;;;;11.27;100.00;99476.59;108003;1283;22027;-62
2023/12/02 06:38:58;;;;;;;14.50;9.50;;;;;;;11.30;100.00;99479.68;107984;1285;21986;-62
2023/12/02 06:41:24;;;;;;;14.40;9.80;;;;;;;11.33;100.00;99473.11;107986;1289;22025;-63
2023/12/02 06:43:50;;;;;;;14.10;8.70;;;;;;;11.39;100.00;99465.02;107278;1289;1002273;-62
2023/12/02 06:46:22;;;;;;;11.10;7.70;;;;;;;11.42;100.00;99467.02;107938;1284;21997;-63
2023/12/02 06:48:50;;;;;;;17.10;8.10;;;;;;;11.44;100.00;99464.68;107983;1283;22000;-62
2023/12/02 06:51:19;;;;;;;12.30;8.40;;;;;;;11.48;100.00;99462.45;107957;1289;21992;-63
2023/12/02 06:53:44;;;;;;;14.00;8.40;;;;;;;11.51;100.00;99465.36;107282;1289;1002340;-65
2023/12/02 06:56:21;;;;;;;13.90;8.20;;;;;;;11.45;100.00;99466.77;107958;1283;21988;-62
2023/12/02 06:58:47;;;;;;;13.90;7.80;;;;;;;11.38;100.00;99474.36;107981;1289;22460;-64
2023/12/02 07:01:23;;;;;;;12.40;7.60;;;;;;;11.36;100.00;99471.42;108066;1289;21990;-62
2023/12/02 07:03:48;;;;;;;9.30;6.40;;;;;;;11.36;100.00;99484.26;107980;1289;22027;-64
2023/12/02 07:06:15;;;;;;;17.40;7.10;;;;;;;11.35;100.00;99489.02;107996;1286;22000;-64
2023/12/02 07:08:41;;;;;;;9.00;6.80;;;;;;;11.36;100.00;99491.27;107930;1289;21994;-63
2023/12/02 07:11:07;;;;;;;10.00;7.30;;;;;;;11.36;100.00;99491.12;107950;1289;21991;-62
2023/12/02 07:13:33;;;;;;;10.50;7.60;;;;;;;11.36;100.00;99490.04;107977;1289;22083;-62
2023/12/02 07:15:58;;;;;;;11.10;7.50;;;;;;;11.36;100.00;99487.92;108011;1289;21958;-63
2023/12/02 07:18:24;;;;;;;10.50;6.80;;;;;;;11.37;100.00;99483.52;108032;1276;22010;-62
2023/12/02 07:20:49;;;;;;;11.30;6.90;;;;;;;11.38;100.00;99472.95;108002;1280;21999;-64
2023/12/02 07:23:15;;;;;;;13.00;6.40;;;;;;;11.40;100.00;99457.77;108002;1289;21995;-62
2023/12/02 07:25:40;;;;;;;10.40;6.80;;;;;;;11.42;100.00;99450.52;107972;1279;22461;-62
2023/12/02 07:28:06;;;;;;;7.90;6.30;;;;;;;11.45;100.00;99443.94;108020;1287;22002;-65
2023/12/02 07:30:32;;;;;;;10.30;7.30;;;;;;;11.48;100.00;99442.77;108073;1284;21998;-63
2023/12/02 07:32:57;;;;;;;9.50;6.60;;;;;;;11.50;100.00;99442.02;107968;1286;21992;-63
2023/12/02 07:35:23;;;;;;;9.40;6.40;;;;;;;11.55;100.00;99453.83;107998;1289;22021;-63
2023/12/02 07:37:49;;;;;;;8.60;5.90;;;;;;;11.60;100.00;99448.75;107978;1289;21992;-63
2023/12/02 07:40:14;;;;;;;11.00;5.90;;;;;;;11.66;100.00;99441.54;107968;1289;22024;-62
2023/12/02 07:42:40;;;;;;;9.70;5.90;;;;;;;11.73;100.00;99450.27;107970;1283;21990;-62
2023/12/02 07:45:06;;;;;;;10.40;5.70;;;;;;;11.79;100.00;99443.03;108003;1289;22450;-63
2023/12/02 07:47:33;;;;;;;7.20;5.60;;;;;;;11.88;100.00;99445.92;107985;1289;22000;-63
2023/12/02 07:49:59;;;;;;;9.50;5.60;;;;;;;11.98;100.00;99448.25;107978;1289;21985;-64
2023/12/02 07:52:25;;;;;;;11.30;6.60;;;;;;;12.10;100.00;99445.44;108021;1289;22000;-63
2023/12/02 07:54:50;;;;;;;10.10;6.40;;;;;;;12.18;100.00;99445.48;107973;1276;21992;-62
2023/12/02 07:57:16;;;;;;;11.60;5.90;;;;;;;12.26;100.00;99455.27;107974;1289;21995;-62
2023/12/02 07:59:41;;;;;;;8.60;5.60;;;;;;;12.30;100.00;99465.14;107972;1276;21996;-63
2023/12/02 08:02:07;;;;;;;8.60;5.70;;;;;;;12.33;100.00;99473.65;107997;1289;21987;-62
2023/12/02 08:04:33;;;;;;;9.60;6.30;;;;;;;12.36;100.00;99484.29;107999;1289;21990;-63
2023/12/02 08:06:58;;;;;;;9.80;6.80;;;;;;;12.36;100.00;99492.73;108011;1289;23774;-63
2023/12/02 08:09:24;;;;;;;12.00;6.70;;;;;;;12.38;100.00;99499.17;108026;1289;21992;-62
2023/12/02 08:11:49;;;;;;;12.20;7.30;;;;;;;12.44;100.00;99492.13;107983;1289;21998;-62
2023/12/02 08:14:15;;;;;;;10.00;6.90;;;;;;;12.51;100.00;99476.92;108025;1276;22000;-64
2023/12/02 08:16:41;;;;;;;10.00;6.30;;;;;;;12.58;100.00;99472.10;107998;1286;21990;-62
2023/12/02 08:19:06;;;;;;;9.60;6.50;;;;;;;12.66;100.00;99465.32;107982;1280;21987;-62
2023/12/02 08:21:32;;;;;;;9.90;6.90;;;;;;;12.74;100.00;99466.07;108001;1289;21997;-63
2023/12/02 08:23:58;;;;;;;10.00;6.60;;;;;;;12.85;100.00;99467.45;108000;1283;21991;-63
2023/12/02 08:26:24;;;;;;;9.70;7.10;;;;;;;12.95;100.00;99464.81;107992;1289;22015;-62
2023/12/02 08:28:50;;;;;;;11.00;7.00;;;;;;;13.03;100.00;99461.67;107945;1289;21983;-62
2023/12/02 08:31:15;;;;;;;12.20;7.20;;;;;;;13.13;100.00;99474.17;107957;1289;21984;-62
2023/12/02 08:33:41;;;;;;;9.70;7.20;;;;;;;13.21;100.00;99475.13;107985;1280;21992;-62
2023/12/02 08:36:07;;;;;;;10.20;7.20;;;;;;;13.26;100.00;99480.73;107976;1286;22045;-62
2023/12/02 08:38:33;;;;;;;9.80;7.00;;;;;;;13.30;100.00;99485.88;107999;1289;21986;-63
2023/12/02 08:40:59;;;;;;;11.80;7.30;;;;;;;13.35;100.00;99483.05;108033;1289;22000;-63
2023/12/02 08:43:24;;;;;;;11.80;7.40;;;;;;;13.40;100.00;99480.77;107988;1289;21999;-62
2023/12/02 08:45:50;;;;;;;13.40;7.20;;;;;;;13.44;100.00;99483.43;107998;1289;22075;-62
2023/12/02 08:48:15;;;;;;;14.30;7.30;;;;;;;13.48;100.00;99491.39;107977;1287;22001;-63
2023/12/02 08:50:41;;;;;;;11.30;7.00;;;;;;;13.51;100.00;99487.41;107962;1289;22005;-62
2023/12/02 08:53:07;;;;;;;11.00;6.60;;;;;;;13.54;100.00;99478.14;107965;1284;21995;-62
2023/12/02 08:55:33;;;;;;;10.30;7.20;;;;;;;13.57;100.00;99474.31;108039;1280;21999;-62
2023/12/02 08:57:58;;;;;;;9.00;7.10;;;;;;;13.60;100.00;99477.21;107980;1289;23426;-62
2023/12/02 09:00:24;;;;;;;11.80;6.60;;;;;;;13.62;100.00;99475.55;107967;1289;21992;-62
2023/12/02 09:02:50;;;;;;;8.60;6.70;;;;;;;13.65;100.00;99476.48;107979;1283;21990;-62
2023/12/02 09:05:16;;;;;;;10.50;7.40;;;;;;;13.70;100.00;99478.73;108021;1279;21997;-62
2023/12/02 09:07:41;;;;;;;10.50;7.30;;;;;;;13.76;100.00;99477.44;107999;1280;21989;-61
2023/12/02 09:10:08;;;;;;;10.30;7.00;;;;;;;13.81;100.00;99467.89;107994;1280;21984;-65
2023/12/02 09:12:34;;;;;;;10.70;7.70;;;;;;;13.85;100.00;99456.27;108002;1289;21990;-62
2023/12/02 09:15:19;;;;;;;9.20;6.80;;;;;;;13.90;100.00;99455.04;107993;1281;21997;-62
2023/12/02 09:18:07;;;;;;;11.90;7.30;;;;;;;13.95;100.00;99450.76;107965;1289;21990;-61
2023/12/02 09:20:43;;;;;;;9.60;6.90;;;;;;;14.00;100.00;99443.87;107911;1289;21998;-63
2023/12/02 09:23:10;;;;;;;10.10;7.60;;;;;;;14.05;100.00;99442.60;108068;1289;21995;-62
2023/12/02 09:25:36;;;;;;;9.50;7.50;;;;;;;14.10;100.00;99432.33;107967;1289;22003;-62
2023/12/02 09:28:05;;;;;;;12.40;8.00;;;;;;;14.14;100.00;99428.62;108029;1289;21992;-63
2023/12/02 09:30:34;;;;;;;11.10;8.00;;;;;;;14.18;100.00;99424.05;107983;1289;21986;-62
2023/12/02 09:33:00;;;;;;;10.20;7.30;;;;;;;14.23;100.00;99423.33;107991;1289;22000;-62
2023/12/02 09:35:26;;;;;;;10.50;7.30;;;;;;;14.27;100.00;99419.62;107987;1289;22008;-63
2023/12/02 09:37:53;;;;;;;12.50;7.50;;;;;;;14.31;100.00;99419.97;107999;1283;21983;-63
2023/12/02 09:40:19;;;;;;;11.20;7.60;;;;;;;14.34;100.00;99419.49;108027;1289;22000;-62
2023/12/02 09:42:44;;;;;;;9.70;7.20;;;;;;;14.35;100.00;99413.43;107985;1289;21985;-62
2023/12/02 09:45:10;;;;;;;10.20;7.30;;;;;;;14.37;100.00;99398.73;107675;1289;21994;-62
2023/12/02 09:47:39;;;;;;;14.40;9.50;;;;;;;14.37;100.00;99391.99;107720;1286;21998;-62
2023/12/02 09:50:11;;;;;;;11.10;7.30;;;;;;;14.38;100.00;99387.39;108008;1289;22001;-64
2023/12/02 09:52:44;;;;;;;11.00;7.60;;;;;;;14.40;100.00;99374.23;108015;1289;22006;-63
2023/12/02 09:55:19;;;;;;;10.40;7.40;;;;;;;14.42;100.00;99371.31;107968;1281;22049;-63
2023/12/02 09:57:57;;;;;;;14.50;8.30;;;;;;;14.45;100.00;99366.27;107996;1289;21997;-62
2023/12/02 10:00:40;;;;;;;12.50;9.20;;;;;;;14.46;100.00;99369.21;107988;1281;21989;-62
2023/12/02 10:03:24;;;;;;;17.90;9.00;;;;;;;14.46;100.00;99375.55;107983;1283;21980;-61
2023/12/02 10:06:14;;;;;;;11.70;8.40;;;;;;;14.45;100.00;99376.65;108000;1283;22001;-63
2023/12/02 10:08:57;;;;;;;11.40;8.10;;;;;;;14.47;100.00;99377.14;107975;1289;21992;-61
2023/12/02 10:11:25;;;;;;;14.40;8.40;;;;;;;14.48;100.00;99383.63;108001;1280;21995;-62
2023/12/02 10:13:59;;;;;;;13.10;8.60;;;;;;;14.50;100.00;99383.36;107973;1289;21999;-62
2023/12/02 10:16:28;;;;;;;11.50;7.90;;;;;;;14.51;100.00;99385.59;107967;1289;22010;-63
2023/12/02 10:18:57;;;;;;;12.10;8.60;;;;;;;14.53;100.00;99392.75;107998;1286;23044;-61
2023/12/02 10:21:23;;;;;;;12.50;9.60;;;;;;;14.55;100.00;99391.41;108026;1284;22000;-63
2023/12/02 10:24:02;;;;;;;12.30;9.40;;;;;;;14.57;100.00;99389.89;107660;1283;21950;-64
2023/12/02 10:26:31;;;;;;;17.40;9.70;;;;;;;14.59;100.00;99390.15;107944;1289;21996;-62
2023/12/02 10:29:13;;;;;;;16.10;9.80;;;;;;;14.61;100.00;99381.80;107997;1280;21986;-62
2023/12/02 10:32:03;;;;;;;13.90;9.10;;;;;;;14.65;100.00;99366.41;108033;1289;21996;-62
2023/12/02 10:34:51;;;;;;;13.60;9.90;;;;;;;14.72;100.00;99353.42;107836;1289;21996;-61
2023/12/02 10:37:17;;;;;;;17.30;11.10;;;;;;;14.79;100.00;99348.54;108036;1289;21994;-61
2023/12/02 10:39:46;;;;;;;17.50;11.50;;;;;;;14.82;100.00;99350.84;107905;1289;22460;-63
2023/12/02 10:42:23;;;;;;;17.90;11.30;;;;;;;14.86;100.00;99346.27;108002;1289;22106;-64
2023/12/02 10:45:01;;;;;;;15.90;10.30;;;;;;;14.89;100.00;99345.26;108001;1287;23755;-61
2023/12/02 10:47:26;;;;;;;12.90;9.90;;;;;;;14.94;100.00;99343.27;107984;1289;22001;-61
2023/12/02 10:49:52;;;;;;;13.50;10.10;;;;;;;14.96;100.00;99344.73;107842;1289;21989;-63
2023/12/02 10:52:17;;;;;;;17.10;10.30;;;;;;;14.91;100.00;99342.66;107982;1289;22037;-61
2023/12/02 10:54:43;;;;;;;22.00;11.20;;;;;;;14.86;100.00;99332.66;107948;1289;22044;-62
2023/12/02 10:57:10;;;;;;;19.50;11.20;;;;;;;14.86;100.00;99331.76;107820;1289;21957;-62
2023/12/02 11:00:16;;;;;;;15.80;10.40;;;;;;;14.90;100.00;99330.00;108026;1280;21996;-62
2023/12/02 11:02:49;;;;;;;17.20;10.60;;;;;;;14.92;100.00;99325.30;107890;1289;22002;-61
2023/12/02 11:05:17;;;;;;;14.40;9.10;;;;;;;14.93;100.00;99319.10;107940;1282;21990;-61
2023/12/02 11:07:48;;;;;;;17.60;9.00;;;;;;;14.90;100.00;99313.94;108026;1289;22000;-62
2023/12/02 11:10:17;;;;;;;13.10;8.90;;;;;;;14.88;100.00;99304.84;107959;1289;23757;-63